sensor_id;sensor_type;location;lat;lon;timestamp;P1;durP1;ratioP1;P2;durP2;ratioP2
61962;SDS011;47927;42.646;23.096;2023-05-17T00:02:06;13.38;;;4.63;;
61962;SDS011;47927;42.646;23.096;2023-05-17T00:04:32;16.00;;;4.43;;
61962;SDS011;47927;42.646;23.096;2023-05-17T00:06:58;14.38;;;4.80;;
61962;SDS011;47927;42.646;23.096;2023-05-17T00:09:23;14.07;;;5.32;;
61962;SDS011;47927;42.646;23.096;2023-05-17T00:11:49;13.55;;;4.35;;
61962;SDS011;47927;42.646;23.096;2023-05-17T00:14:14;15.55;;;4.82;;
61962;SDS011;47927;42.646;23.096;2023-05-17T00:16:40;9.45;;;4.45;;
61962;SDS011;47927;42.646;23.096;2023-05-17T00:19:06;9.02;;;4.47;;
61962;SDS011;47927;42.646;23.096;2023-05-17T00:21:33;11.00;;;4.72;;
61962;SDS011;47927;42.646;23.096;2023-05-17T00:23:59;9.93;;;4.70;;
61962;SDS011;47927;42.646;23.096;2023-05-17T00:26:25;11.23;;;4.72;;
61962;SDS011;47927;42.646;23.096;2023-05-17T00:28:50;14.40;;;4.95;;
61962;SDS011;47927;42.646;23.096;2023-05-17T00:31:16;11.82;;;4.68;;
61962;SDS011;47927;42.646;23.096;2023-05-17T00:33:42;12.30;;;5.63;;
61962;SDS011;47927;42.646;23.096;2023-05-17T00:36:08;11.32;;;4.25;;
61962;SDS011;47927;42.646;23.096;2023-05-17T00:38:34;13.85;;;4.55;;
61962;SDS011;47927;42.646;23.096;2023-05-17T00:41:00;11.15;;;4.72;;
61962;SDS011;47927;42.646;23.096;2023-05-17T00:43:25;14.57;;;4.40;;
61962;SDS011;47927;42.646;23.096;2023-05-17T00:45:51;15.63;;;4.63;;
61962;SDS011;47927;42.646;23.096;2023-05-17T00:48:17;17.08;;;4.25;;
61962;SDS011;47927;42.646;23.096;2023-05-17T00:50:45;11.05;;;4.60;;
61962;SDS011;47927;42.646;23.096;2023-05-17T00:53:13;13.32;;;5.32;;
61962;SDS011;47927;42.646;23.096;2023-05-17T00:55:43;10.70;;;4.28;;
61962;SDS011;47927;42.646;23.096;2023-05-17T00:58:11;11.70;;;4.20;;
61962;SDS011;47927;42.646;23.096;2023-05-17T01:00:38;11.05;;;4.30;;
61962;SDS011;47927;42.646;23.096;2023-05-17T01:03:03;13.48;;;4.22;;
61962;SDS011;47927;42.646;23.096;2023-05-17T01:05:29;11.70;;;5.43;;
61962;SDS011;47927;42.646;23.096;2023-05-17T01:07:55;12.70;;;5.32;;
61962;SDS011;47927;42.646;23.096;2023-05-17T01:10:25;13.70;;;4.10;;
61962;SDS011;47927;42.646;23.096;2023-05-17T01:13:18;13.00;;;4.53;;
61962;SDS011;47927;42.646;23.096;2023-05-17T01:16:32;10.32;;;4.13;;
61962;SDS011;47927;42.646;23.096;2023-05-17T01:24:27;11.20;;;4.00;;
61962;SDS011;47927;42.646;23.096;2023-05-17T01:27:03;15.10;;;3.90;;
61962;SDS011;47927;42.646;23.096;2023-05-17T01:29:29;12.90;;;4.47;;
61962;SDS011;47927;42.646;23.096;2023-05-17T01:32:16;8.45;;;3.95;;
61962;SDS011;47927;42.646;23.096;2023-05-17T01:34:42;10.07;;;4.38;;
61962;SDS011;47927;42.646;23.096;2023-05-17T01:37:07;13.27;;;4.72;;
61962;SDS011;47927;42.646;23.096;2023-05-17T01:39:34;18.25;;;4.20;;
61962;SDS011;47927;42.646;23.096;2023-05-17T01:42:14;13.48;;;5.15;;
61962;SDS011;47927;42.646;23.096;2023-05-17T01:50:46;8.35;;;3.72;;
61962;SDS011;47927;42.646;23.096;2023-05-17T01:53:17;17.02;;;5.07;;
61962;SDS011;47927;42.646;23.096;2023-05-17T01:59:33;15.32;;;3.97;;
61962;SDS011;47927;42.646;23.096;2023-05-17T02:02:02;10.00;;;3.93;;
61962;SDS011;47927;42.646;23.096;2023-05-17T02:04:34;12.80;;;3.70;;
61962;SDS011;47927;42.646;23.096;2023-05-17T02:07:01;9.48;;;3.88;;
61962;SDS011;47927;42.646;23.096;2023-05-17T02:09:27;13.30;;;4.32;;
61962;SDS011;47927;42.646;23.096;2023-05-17T02:11:53;9.63;;;4.00;;
61962;SDS011;47927;42.646;23.096;2023-05-17T02:14:18;9.77;;;3.85;;
61962;SDS011;47927;42.646;23.096;2023-05-17T02:16:44;10.55;;;3.92;;
61962;SDS011;47927;42.646;23.096;2023-05-17T02:19:11;13.68;;;4.00;;
61962;SDS011;47927;42.646;23.096;2023-05-17T02:21:38;17.85;;;3.92;;
61962;SDS011;47927;42.646;23.096;2023-05-17T02:24:04;18.73;;;4.35;;
61962;SDS011;47927;42.646;23.096;2023-05-17T02:26:29;14.85;;;4.03;;
61962;SDS011;47927;42.646;23.096;2023-05-17T02:28:56;10.32;;;3.13;;
61962;SDS011;47927;42.646;23.096;2023-05-17T02:31:22;12.65;;;3.40;;
61962;SDS011;47927;42.646;23.096;2023-05-17T02:33:53;24.00;;;3.78;;
61962;SDS011;47927;42.646;23.096;2023-05-17T02:36:21;10.65;;;3.60;;
61962;SDS011;47927;42.646;23.096;2023-05-17T02:38:46;11.63;;;3.08;;
61962;SDS011;47927;42.646;23.096;2023-05-17T02:41:12;7.88;;;3.42;;
61962;SDS011;47927;42.646;23.096;2023-05-17T02:43:37;9.45;;;3.47;;
61962;SDS011;47927;42.646;23.096;2023-05-17T02:46:03;8.00;;;3.08;;
61962;SDS011;47927;42.646;23.096;2023-05-17T02:48:29;10.32;;;3.33;;
61962;SDS011;47927;42.646;23.096;2023-05-17T02:50:54;9.23;;;3.55;;
61962;SDS011;47927;42.646;23.096;2023-05-17T02:53:20;10.07;;;3.80;;
61962;SDS011;47927;42.646;23.096;2023-05-17T02:55:45;14.85;;;3.58;;
61962;SDS011;47927;42.646;23.096;2023-05-17T02:58:12;8.63;;;3.35;;
61962;SDS011;47927;42.646;23.096;2023-05-17T03:00:37;15.05;;;3.83;;
61962;SDS011;47927;42.646;23.096;2023-05-17T03:03:03;14.60;;;3.53;;
61962;SDS011;47927;42.646;23.096;2023-05-17T03:05:29;11.93;;;3.65;;
61962;SDS011;47927;42.646;23.096;2023-05-17T03:07:55;9.43;;;3.97;;
61962;SDS011;47927;42.646;23.096;2023-05-17T03:10:21;13.65;;;3.75;;
61962;SDS011;47927;42.646;23.096;2023-05-17T03:12:47;10.55;;;3.60;;
61962;SDS011;47927;42.646;23.096;2023-05-17T03:15:16;8.82;;;3.35;;
61962;SDS011;47927;42.646;23.096;2023-05-17T03:17:42;9.43;;;2.90;;
61962;SDS011;47927;42.646;23.096;2023-05-17T03:20:08;12.82;;;3.35;;
61962;SDS011;47927;42.646;23.096;2023-05-17T03:22:35;11.35;;;3.00;;
61962;SDS011;47927;42.646;23.096;2023-05-17T03:25:01;12.77;;;2.95;;
61962;SDS011;47927;42.646;23.096;2023-05-17T03:27:26;9.75;;;3.47;;
61962;SDS011;47927;42.646;23.096;2023-05-17T03:29:52;10.95;;;3.42;;
61962;SDS011;47927;42.646;23.096;2023-05-17T03:32:19;16.88;;;3.28;;
61962;SDS011;47927;42.646;23.096;2023-05-17T03:34:45;16.30;;;3.78;;
61962;SDS011;47927;42.646;23.096;2023-05-17T03:37:11;9.90;;;3.85;;
61962;SDS011;47927;42.646;23.096;2023-05-17T03:39:36;13.10;;;3.78;;
61962;SDS011;47927;42.646;23.096;2023-05-17T03:42:02;8.57;;;3.72;;
61962;SDS011;47927;42.646;23.096;2023-05-17T03:44:29;11.55;;;3.40;;
61962;SDS011;47927;42.646;23.096;2023-05-17T03:46:55;14.18;;;4.05;;
61962;SDS011;47927;42.646;23.096;2023-05-17T03:49:22;11.52;;;4.25;;
61962;SDS011;47927;42.646;23.096;2023-05-17T03:51:49;14.10;;;5.15;;
61962;SDS011;47927;42.646;23.096;2023-05-17T03:54:16;20.60;;;5.35;;
61962;SDS011;47927;42.646;23.096;2023-05-17T03:56:42;11.35;;;4.72;;
61962;SDS011;47927;42.646;23.096;2023-05-17T03:59:14;15.35;;;5.10;;
61962;SDS011;47927;42.646;23.096;2023-05-17T04:01:41;11.35;;;5.45;;
61962;SDS011;47927;42.646;23.096;2023-05-17T04:04:08;18.75;;;4.57;;
61962;SDS011;47927;42.646;23.096;2023-05-17T04:06:33;12.02;;;4.53;;
61962;SDS011;47927;42.646;23.096;2023-05-17T04:08:59;7.80;;;3.53;;
61962;SDS011;47927;42.646;23.096;2023-05-17T04:11:42;11.65;;;4.00;;
61962;SDS011;47927;42.646;23.096;2023-05-17T04:14:09;7.57;;;2.90;;
61962;SDS011;47927;42.646;23.096;2023-05-17T04:16:35;16.23;;;3.40;;
61962;SDS011;47927;42.646;23.096;2023-05-17T04:19:00;11.98;;;3.33;;
61962;SDS011;47927;42.646;23.096;2023-05-17T04:21:27;10.30;;;2.90;;
61962;SDS011;47927;42.646;23.096;2023-05-17T04:23:53;8.75;;;3.42;;
61962;SDS011;47927;42.646;23.096;2023-05-17T04:26:19;7.28;;;2.90;;
61962;SDS011;47927;42.646;23.096;2023-05-17T04:28:45;10.38;;;3.13;;
61962;SDS011;47927;42.646;23.096;2023-05-17T04:31:12;13.82;;;3.17;;
61962;SDS011;47927;42.646;23.096;2023-05-17T04:33:39;13.30;;;3.03;;
61962;SDS011;47927;42.646;23.096;2023-05-17T04:36:06;7.70;;;2.75;;
61962;SDS011;47927;42.646;23.096;2023-05-17T04:38:33;12.00;;;3.47;;
61962;SDS011;47927;42.646;23.096;2023-05-17T04:41:05;11.90;;;3.25;;
61962;SDS011;47927;42.646;23.096;2023-05-17T04:43:33;15.00;;;3.42;;
61962;SDS011;47927;42.646;23.096;2023-05-17T04:46:00;15.20;;;3.70;;
61962;SDS011;47927;42.646;23.096;2023-05-17T04:48:30;12.25;;;4.60;;
61962;SDS011;47927;42.646;23.096;2023-05-17T04:50:59;15.38;;;5.15;;
61962;SDS011;47927;42.646;23.096;2023-05-17T04:53:26;17.80;;;6.35;;
61962;SDS011;47927;42.646;23.096;2023-05-17T04:55:52;15.60;;;6.22;;
61962;SDS011;47927;42.646;23.096;2023-05-17T04:58:18;18.23;;;5.90;;
61962;SDS011;47927;42.646;23.096;2023-05-17T05:00:49;17.83;;;6.47;;
61962;SDS011;47927;42.646;23.096;2023-05-17T05:03:16;23.27;;;6.15;;
61962;SDS011;47927;42.646;23.096;2023-05-17T05:05:41;16.40;;;5.97;;
61962;SDS011;47927;42.646;23.096;2023-05-17T05:08:08;15.18;;;5.32;;
61962;SDS011;47927;42.646;23.096;2023-05-17T05:10:35;16.90;;;5.50;;
61962;SDS011;47927;42.646;23.096;2023-05-17T05:13:01;15.63;;;5.13;;
61962;SDS011;47927;42.646;23.096;2023-05-17T05:15:26;13.02;;;4.80;;
61962;SDS011;47927;42.646;23.096;2023-05-17T05:17:56;19.25;;;5.38;;
61962;SDS011;47927;42.646;23.096;2023-05-17T05:20:22;16.70;;;6.25;;
61962;SDS011;47927;42.646;23.096;2023-05-17T05:22:48;19.95;;;6.57;;
61962;SDS011;47927;42.646;23.096;2023-05-17T05:25:15;18.80;;;5.93;;
61962;SDS011;47927;42.646;23.096;2023-05-17T05:27:41;18.30;;;6.00;;
61962;SDS011;47927;42.646;23.096;2023-05-17T05:30:07;19.08;;;6.75;;
61962;SDS011;47927;42.646;23.096;2023-05-17T05:32:34;20.65;;;6.43;;
61962;SDS011;47927;42.646;23.096;2023-05-17T05:35:12;14.43;;;5.35;;
61962;SDS011;47927;42.646;23.096;2023-05-17T05:37:37;19.70;;;5.32;;
61962;SDS011;47927;42.646;23.096;2023-05-17T05:40:03;22.20;;;6.15;;
61962;SDS011;47927;42.646;23.096;2023-05-17T05:42:47;16.73;;;5.80;;
61962;SDS011;47927;42.646;23.096;2023-05-17T05:48:11;12.32;;;5.82;;
61962;SDS011;47927;42.646;23.096;2023-05-17T05:50:38;13.55;;;5.80;;
61962;SDS011;47927;42.646;23.096;2023-05-17T05:53:09;13.57;;;5.50;;
61962;SDS011;47927;42.646;23.096;2023-05-17T05:55:38;17.38;;;6.22;;
61962;SDS011;47927;42.646;23.096;2023-05-17T05:58:04;14.95;;;5.65;;
61962;SDS011;47927;42.646;23.096;2023-05-17T06:00:30;19.60;;;6.47;;
61962;SDS011;47927;42.646;23.096;2023-05-17T06:02:56;16.85;;;5.85;;
61962;SDS011;47927;42.646;23.096;2023-05-17T06:05:21;16.95;;;5.47;;
61962;SDS011;47927;42.646;23.096;2023-05-17T06:07:57;12.20;;;5.25;;
61962;SDS011;47927;42.646;23.096;2023-05-17T06:10:23;14.77;;;5.65;;
61962;SDS011;47927;42.646;23.096;2023-05-17T06:12:48;13.73;;;5.90;;
61962;SDS011;47927;42.646;23.096;2023-05-17T06:15:14;13.07;;;5.97;;
61962;SDS011;47927;42.646;23.096;2023-05-17T06:17:46;18.58;;;5.25;;
61962;SDS011;47927;42.646;23.096;2023-05-17T06:20:12;17.90;;;5.57;;
61962;SDS011;47927;42.646;23.096;2023-05-17T06:22:39;15.90;;;5.60;;
61962;SDS011;47927;42.646;23.096;2023-05-17T06:25:04;14.32;;;5.90;;
61962;SDS011;47927;42.646;23.096;2023-05-17T06:27:30;16.55;;;5.93;;
61962;SDS011;47927;42.646;23.096;2023-05-17T06:29:56;14.13;;;5.13;;
61962;SDS011;47927;42.646;23.096;2023-05-17T06:32:22;22.08;;;6.00;;
61962;SDS011;47927;42.646;23.096;2023-05-17T06:37:17;16.33;;;5.78;;
61962;SDS011;47927;42.646;23.096;2023-05-17T06:39:42;16.83;;;5.90;;
61962;SDS011;47927;42.646;23.096;2023-05-17T06:42:08;13.05;;;5.47;;
61962;SDS011;47927;42.646;23.096;2023-05-17T06:44:34;13.82;;;4.85;;
61962;SDS011;47927;42.646;23.096;2023-05-17T06:47:00;14.43;;;5.30;;
61962;SDS011;47927;42.646;23.096;2023-05-17T06:49:25;12.82;;;6.30;;
61962;SDS011;47927;42.646;23.096;2023-05-17T06:51:51;14.07;;;6.00;;
61962;SDS011;47927;42.646;23.096;2023-05-17T06:54:18;14.38;;;6.20;;
61962;SDS011;47927;42.646;23.096;2023-05-17T06:56:44;15.65;;;6.00;;
61962;SDS011;47927;42.646;23.096;2023-05-17T06:59:10;11.52;;;5.90;;
61962;SDS011;47927;42.646;23.096;2023-05-17T07:01:36;10.85;;;4.85;;
61962;SDS011;47927;42.646;23.096;2023-05-17T07:04:01;12.20;;;6.25;;
61962;SDS011;47927;42.646;23.096;2023-05-17T07:06:28;17.73;;;6.07;;
61962;SDS011;47927;42.646;23.096;2023-05-17T07:08:53;13.57;;;5.57;;
61962;SDS011;47927;42.646;23.096;2023-05-17T07:11:19;14.32;;;6.00;;
61962;SDS011;47927;42.646;23.096;2023-05-17T07:13:44;14.48;;;5.50;;
61962;SDS011;47927;42.646;23.096;2023-05-17T07:16:10;12.50;;;6.10;;
61962;SDS011;47927;42.646;23.096;2023-05-17T07:18:35;13.30;;;5.50;;
61962;SDS011;47927;42.646;23.096;2023-05-17T07:21:01;13.13;;;5.47;;
61962;SDS011;47927;42.646;23.096;2023-05-17T07:23:26;10.23;;;5.93;;
61962;SDS011;47927;42.646;23.096;2023-05-17T07:25:52;9.85;;;5.85;;
61962;SDS011;47927;42.646;23.096;2023-05-17T07:28:17;12.45;;;6.00;;
61962;SDS011;47927;42.646;23.096;2023-05-17T07:30:43;14.77;;;5.63;;
61962;SDS011;47927;42.646;23.096;2023-05-17T07:33:08;14.38;;;6.13;;
61962;SDS011;47927;42.646;23.096;2023-05-17T07:35:34;12.13;;;5.95;;
61962;SDS011;47927;42.646;23.096;2023-05-17T07:37:59;11.57;;;6.00;;
61962;SDS011;47927;42.646;23.096;2023-05-17T07:40:25;11.13;;;6.10;;
61962;SDS011;47927;42.646;23.096;2023-05-17T07:42:51;10.80;;;5.70;;
61962;SDS011;47927;42.646;23.096;2023-05-17T07:45:17;15.82;;;5.90;;
61962;SDS011;47927;42.646;23.096;2023-05-17T07:47:43;13.63;;;6.20;;
61962;SDS011;47927;42.646;23.096;2023-05-17T07:50:08;18.17;;;5.53;;
61962;SDS011;47927;42.646;23.096;2023-05-17T07:52:34;13.75;;;5.38;;
61962;SDS011;47927;42.646;23.096;2023-05-17T07:55:00;12.15;;;5.43;;
61962;SDS011;47927;42.646;23.096;2023-05-17T07:57:26;12.77;;;5.90;;
61962;SDS011;47927;42.646;23.096;2023-05-17T07:59:51;10.85;;;5.55;;
61962;SDS011;47927;42.646;23.096;2023-05-17T08:02:17;14.38;;;5.18;;
61962;SDS011;47927;42.646;23.096;2023-05-17T08:04:42;11.80;;;5.50;;
61962;SDS011;47927;42.646;23.096;2023-05-17T08:07:08;13.43;;;5.18;;
61962;SDS011;47927;42.646;23.096;2023-05-17T08:09:33;10.90;;;5.90;;
61962;SDS011;47927;42.646;23.096;2023-05-17T08:11:59;12.55;;;5.20;;
61962;SDS011;47927;42.646;23.096;2023-05-17T08:14:25;14.25;;;5.10;;
61962;SDS011;47927;42.646;23.096;2023-05-17T08:17:09;10.60;;;6.00;;
61962;SDS011;47927;42.646;23.096;2023-05-17T08:19:35;9.25;;;5.72;;
61962;SDS011;47927;42.646;23.096;2023-05-17T08:22:01;9.63;;;5.95;;
61962;SDS011;47927;42.646;23.096;2023-05-17T08:24:27;11.93;;;5.93;;
61962;SDS011;47927;42.646;23.096;2023-05-17T08:26:53;11.10;;;6.35;;
61962;SDS011;47927;42.646;23.096;2023-05-17T08:29:18;12.27;;;7.07;;
61962;SDS011;47927;42.646;23.096;2023-05-17T08:31:44;13.90;;;5.57;;
61962;SDS011;47927;42.646;23.096;2023-05-17T08:34:09;13.25;;;6.80;;
61962;SDS011;47927;42.646;23.096;2023-05-17T08:36:35;12.50;;;6.00;;
61962;SDS011;47927;42.646;23.096;2023-05-17T08:39:00;12.38;;;5.93;;
61962;SDS011;47927;42.646;23.096;2023-05-17T08:41:26;14.38;;;6.18;;
61962;SDS011;47927;42.646;23.096;2023-05-17T08:43:52;12.38;;;6.57;;
61962;SDS011;47927;42.646;23.096;2023-05-17T08:46:19;12.65;;;6.15;;
61962;SDS011;47927;42.646;23.096;2023-05-17T08:48:45;12.85;;;6.05;;
61962;SDS011;47927;42.646;23.096;2023-05-17T08:51:16;12.13;;;6.10;;
61962;SDS011;47927;42.646;23.096;2023-05-17T08:53:41;12.88;;;6.25;;
61962;SDS011;47927;42.646;23.096;2023-05-17T08:56:11;9.80;;;5.65;;
61962;SDS011;47927;42.646;23.096;2023-05-17T08:58:38;15.90;;;6.40;;
61962;SDS011;47927;42.646;23.096;2023-05-17T09:01:06;9.60;;;5.43;;
61962;SDS011;47927;42.646;23.096;2023-05-17T09:06:21;13.50;;;5.47;;
61962;SDS011;47927;42.646;23.096;2023-05-17T09:08:51;15.93;;;5.78;;
61962;SDS011;47927;42.646;23.096;2023-05-17T09:11:26;11.60;;;5.57;;
61962;SDS011;47927;42.646;23.096;2023-05-17T09:13:56;13.55;;;5.10;;
61962;SDS011;47927;42.646;23.096;2023-05-17T09:16:24;12.13;;;5.53;;
61962;SDS011;47927;42.646;23.096;2023-05-17T09:18:55;13.10;;;5.78;;
61962;SDS011;47927;42.646;23.096;2023-05-17T09:21:22;12.20;;;5.70;;
61962;SDS011;47927;42.646;23.096;2023-05-17T09:23:52;11.55;;;6.18;;
61962;SDS011;47927;42.646;23.096;2023-05-17T09:26:19;10.88;;;5.13;;
61962;SDS011;47927;42.646;23.096;2023-05-17T09:28:46;14.40;;;5.57;;
61962;SDS011;47927;42.646;23.096;2023-05-17T09:31:14;19.23;;;5.80;;
61962;SDS011;47927;42.646;23.096;2023-05-17T09:33:47;11.60;;;4.80;;
61962;SDS011;47927;42.646;23.096;2023-05-17T09:36:18;11.45;;;4.50;;
61962;SDS011;47927;42.646;23.096;2023-05-17T09:38:54;14.43;;;6.00;;
61962;SDS011;47927;42.646;23.096;2023-05-17T09:41:21;13.73;;;5.32;;
61962;SDS011;47927;42.646;23.096;2023-05-17T09:43:51;12.02;;;4.75;;
61962;SDS011;47927;42.646;23.096;2023-05-17T09:46:18;10.85;;;4.35;;
61962;SDS011;47927;42.646;23.096;2023-05-17T09:48:44;11.63;;;4.47;;
61962;SDS011;47927;42.646;23.096;2023-05-17T09:51:10;12.30;;;4.95;;
61962;SDS011;47927;42.646;23.096;2023-05-17T09:53:36;12.30;;;5.75;;
61962;SDS011;47927;42.646;23.096;2023-05-17T09:56:06;14.80;;;4.70;;
61962;SDS011;47927;42.646;23.096;2023-05-17T10:01:20;12.38;;;4.85;;
61962;SDS011;47927;42.646;23.096;2023-05-17T10:03:46;15.85;;;5.72;;
61962;SDS011;47927;42.646;23.096;2023-05-17T10:06:15;10.73;;;5.00;;
61962;SDS011;47927;42.646;23.096;2023-05-17T10:08:45;12.70;;;5.35;;
61962;SDS011;47927;42.646;23.096;2023-05-17T10:11:15;13.52;;;5.15;;
61962;SDS011;47927;42.646;23.096;2023-05-17T10:16:18;14.88;;;5.22;;
61962;SDS011;47927;42.646;23.096;2023-05-17T10:18:46;13.13;;;5.03;;
61962;SDS011;47927;42.646;23.096;2023-05-17T10:21:13;10.38;;;4.65;;
61962;SDS011;47927;42.646;23.096;2023-05-17T10:23:39;15.45;;;4.97;;
61962;SDS011;47927;42.646;23.096;2023-05-17T10:26:21;13.13;;;4.57;;
61962;SDS011;47927;42.646;23.096;2023-05-17T10:28:47;16.00;;;4.88;;
61962;SDS011;47927;42.646;23.096;2023-05-17T10:33:43;13.48;;;4.95;;
61962;SDS011;47927;42.646;23.096;2023-05-17T10:36:12;11.50;;;5.07;;
61962;SDS011;47927;42.646;23.096;2023-05-17T10:38:41;13.48;;;5.30;;
61962;SDS011;47927;42.646;23.096;2023-05-17T10:41:07;10.30;;;4.53;;
61962;SDS011;47927;42.646;23.096;2023-05-17T10:43:35;10.40;;;4.60;;
61962;SDS011;47927;42.646;23.096;2023-05-17T10:46:03;12.65;;;4.63;;
61962;SDS011;47927;42.646;23.096;2023-05-17T10:48:39;12.27;;;4.70;;
61962;SDS011;47927;42.646;23.096;2023-05-17T10:51:05;13.23;;;5.20;;
61962;SDS011;47927;42.646;23.096;2023-05-17T10:53:32;9.70;;;4.70;;
61962;SDS011;47927;42.646;23.096;2023-05-17T10:55:57;15.05;;;5.88;;
61962;SDS011;47927;42.646;23.096;2023-05-17T10:58:25;9.85;;;4.90;;
61962;SDS011;47927;42.646;23.096;2023-05-17T11:00:52;11.80;;;5.10;;
61962;SDS011;47927;42.646;23.096;2023-05-17T11:03:19;13.32;;;5.63;;
61962;SDS011;47927;42.646;23.096;2023-05-17T11:11:38;13.65;;;5.20;;
61962;SDS011;47927;42.646;23.096;2023-05-17T11:17:16;13.65;;;5.45;;
61962;SDS011;47927;42.646;23.096;2023-05-17T11:22:19;13.15;;;5.05;;
61962;SDS011;47927;42.646;23.096;2023-05-17T11:24:47;12.93;;;4.93;;
61962;SDS011;47927;42.646;23.096;2023-05-17T11:27:17;11.73;;;5.07;;
61962;SDS011;47927;42.646;23.096;2023-05-17T11:29:46;14.18;;;4.82;;
61962;SDS011;47927;42.646;23.096;2023-05-17T11:32:12;14.15;;;5.13;;
61962;SDS011;47927;42.646;23.096;2023-05-17T11:34:37;12.07;;;5.05;;
61962;SDS011;47927;42.646;23.096;2023-05-17T11:37:03;14.48;;;5.40;;
61962;SDS011;47927;42.646;23.096;2023-05-17T11:39:36;11.98;;;4.90;;
61962;SDS011;47927;42.646;23.096;2023-05-17T11:42:01;12.18;;;5.05;;
61962;SDS011;47927;42.646;23.096;2023-05-17T11:44:30;16.35;;;5.00;;
61962;SDS011;47927;42.646;23.096;2023-05-17T11:47:07;11.52;;;5.47;;
61962;SDS011;47927;42.646;23.096;2023-05-17T11:49:35;14.00;;;6.40;;
61962;SDS011;47927;42.646;23.096;2023-05-17T11:52:05;10.98;;;5.03;;
61962;SDS011;47927;42.646;23.096;2023-05-17T11:54:32;11.95;;;5.68;;
61962;SDS011;47927;42.646;23.096;2023-05-17T11:56:58;13.88;;;5.22;;
61962;SDS011;47927;42.646;23.096;2023-05-17T11:59:24;15.02;;;6.35;;
61962;SDS011;47927;42.646;23.096;2023-05-17T12:01:50;13.18;;;5.00;;
61962;SDS011;47927;42.646;23.096;2023-05-17T12:04:23;17.98;;;5.85;;
61962;SDS011;47927;42.646;23.096;2023-05-17T12:06:54;18.42;;;6.82;;
61962;SDS011;47927;42.646;23.096;2023-05-17T12:09:23;16.20;;;7.10;;
61962;SDS011;47927;42.646;23.096;2023-05-17T12:11:50;19.33;;;6.85;;
61962;SDS011;47927;42.646;23.096;2023-05-17T12:14:19;11.43;;;6.38;;
61962;SDS011;47927;42.646;23.096;2023-05-17T12:16:49;13.48;;;5.55;;
61962;SDS011;47927;42.646;23.096;2023-05-17T12:19:17;12.88;;;5.20;;
61962;SDS011;47927;42.646;23.096;2023-05-17T12:21:44;17.35;;;5.57;;
61962;SDS011;47927;42.646;23.096;2023-05-17T12:24:10;12.95;;;6.60;;
61962;SDS011;47927;42.646;23.096;2023-05-17T12:26:41;15.23;;;6.40;;
61962;SDS011;47927;42.646;23.096;2023-05-17T12:29:11;14.88;;;6.88;;
61962;SDS011;47927;42.646;23.096;2023-05-17T12:31:48;12.00;;;5.07;;
61962;SDS011;47927;42.646;23.096;2023-05-17T12:37:01;12.30;;;5.38;;
61962;SDS011;47927;42.646;23.096;2023-05-17T12:39:27;15.02;;;6.05;;
61962;SDS011;47927;42.646;23.096;2023-05-17T12:41:55;13.43;;;5.97;;
61962;SDS011;47927;42.646;23.096;2023-05-17T12:44:21;11.57;;;5.45;;
61962;SDS011;47927;42.646;23.096;2023-05-17T12:46:47;15.15;;;6.35;;
61962;SDS011;47927;42.646;23.096;2023-05-17T12:49:18;15.57;;;6.82;;
61962;SDS011;47927;42.646;23.096;2023-05-17T12:51:46;11.57;;;5.40;;
61962;SDS011;47927;42.646;23.096;2023-05-17T12:56:53;12.05;;;5.80;;
61962;SDS011;47927;42.646;23.096;2023-05-17T12:59:20;14.30;;;5.43;;
61962;SDS011;47927;42.646;23.096;2023-05-17T13:04:14;11.88;;;5.85;;
61962;SDS011;47927;42.646;23.096;2023-05-17T13:09:16;15.27;;;5.72;;
61962;SDS011;47927;42.646;23.096;2023-05-17T13:11:49;11.95;;;4.60;;
61962;SDS011;47927;42.646;23.096;2023-05-17T13:14:31;12.02;;;5.30;;
61962;SDS011;47927;42.646;23.096;2023-05-17T13:17:10;8.57;;;5.07;;
61962;SDS011;47927;42.646;23.096;2023-05-17T13:19:43;10.55;;;4.90;;
61962;SDS011;47927;42.646;23.096;2023-05-17T13:22:08;10.25;;;4.78;;
61962;SDS011;47927;42.646;23.096;2023-05-17T13:24:35;14.02;;;4.85;;
61962;SDS011;47927;42.646;23.096;2023-05-17T13:27:01;12.75;;;5.18;;
61962;SDS011;47927;42.646;23.096;2023-05-17T13:29:28;10.65;;;5.28;;
61962;SDS011;47927;42.646;23.096;2023-05-17T13:31:54;11.70;;;5.65;;
61962;SDS011;47927;42.646;23.096;2023-05-17T13:34:20;13.73;;;5.68;;
61962;SDS011;47927;42.646;23.096;2023-05-17T13:36:45;11.23;;;4.85;;
61962;SDS011;47927;42.646;23.096;2023-05-17T13:39:12;12.23;;;4.97;;
61962;SDS011;47927;42.646;23.096;2023-05-17T13:41:38;15.05;;;6.30;;
61962;SDS011;47927;42.646;23.096;2023-05-17T13:44:04;11.45;;;6.47;;
61962;SDS011;47927;42.646;23.096;2023-05-17T13:46:32;11.90;;;5.90;;
61962;SDS011;47927;42.646;23.096;2023-05-17T13:48:57;17.33;;;6.03;;
61962;SDS011;47927;42.646;23.096;2023-05-17T13:51:23;16.40;;;5.50;;
61962;SDS011;47927;42.646;23.096;2023-05-17T13:53:52;13.13;;;5.38;;
61962;SDS011;47927;42.646;23.096;2023-05-17T13:56:18;18.95;;;5.40;;
61962;SDS011;47927;42.646;23.096;2023-05-17T13:58:44;15.68;;;5.70;;
61962;SDS011;47927;42.646;23.096;2023-05-17T14:01:09;11.18;;;5.45;;
61962;SDS011;47927;42.646;23.096;2023-05-17T14:03:35;11.02;;;5.13;;
61962;SDS011;47927;42.646;23.096;2023-05-17T14:06:03;11.15;;;5.60;;
61962;SDS011;47927;42.646;23.096;2023-05-17T14:08:30;18.33;;;6.20;;
61962;SDS011;47927;42.646;23.096;2023-05-17T14:10:57;11.73;;;4.80;;
61962;SDS011;47927;42.646;23.096;2023-05-17T14:13:41;9.45;;;4.90;;
61962;SDS011;47927;42.646;23.096;2023-05-17T14:16:07;14.52;;;5.75;;
61962;SDS011;47927;42.646;23.096;2023-05-17T14:18:32;13.82;;;5.43;;
61962;SDS011;47927;42.646;23.096;2023-05-17T14:20:58;8.80;;;4.93;;
61962;SDS011;47927;42.646;23.096;2023-05-17T14:23:25;9.98;;;4.85;;
61962;SDS011;47927;42.646;23.096;2023-05-17T14:25:50;11.82;;;6.28;;
61962;SDS011;47927;42.646;23.096;2023-05-17T14:28:16;11.88;;;5.43;;
61962;SDS011;47927;42.646;23.096;2023-05-17T14:31:00;10.25;;;4.80;;
61962;SDS011;47927;42.646;23.096;2023-05-17T14:33:26;9.60;;;3.80;;
61962;SDS011;47927;42.646;23.096;2023-05-17T14:35:52;8.90;;;4.47;;
61962;SDS011;47927;42.646;23.096;2023-05-17T14:38:17;12.52;;;5.07;;
61962;SDS011;47927;42.646;23.096;2023-05-17T14:40:44;14.02;;;4.47;;
61962;SDS011;47927;42.646;23.096;2023-05-17T14:43:10;6.70;;;3.55;;
61962;SDS011;47927;42.646;23.096;2023-05-17T14:45:35;10.48;;;3.80;;
61962;SDS011;47927;42.646;23.096;2023-05-17T14:50:40;12.27;;;3.17;;
61962;SDS011;47927;42.646;23.096;2023-05-17T14:53:06;10.27;;;3.33;;
61962;SDS011;47927;42.646;23.096;2023-05-17T14:55:31;7.38;;;3.33;;
61962;SDS011;47927;42.646;23.096;2023-05-17T14:57:57;7.40;;;3.13;;
61962;SDS011;47927;42.646;23.096;2023-05-17T15:00:23;15.80;;;3.20;;
61962;SDS011;47927;42.646;23.096;2023-05-17T15:02:51;7.93;;;2.38;;
61962;SDS011;47927;42.646;23.096;2023-05-17T15:05:16;12.65;;;4.18;;
61962;SDS011;47927;42.646;23.096;2023-05-17T15:07:42;11.07;;;3.17;;
61962;SDS011;47927;42.646;23.096;2023-05-17T15:10:08;10.25;;;3.58;;
61962;SDS011;47927;42.646;23.096;2023-05-17T15:12:35;8.77;;;3.25;;
61962;SDS011;47927;42.646;23.096;2023-05-17T15:15:01;9.10;;;2.80;;
61962;SDS011;47927;42.646;23.096;2023-05-17T15:17:27;9.63;;;2.72;;
61962;SDS011;47927;42.646;23.096;2023-05-17T15:19:52;7.93;;;3.50;;
61962;SDS011;47927;42.646;23.096;2023-05-17T15:22:18;11.45;;;3.63;;